PWSweather.com
Personal Weather Stations
Station Observations
WD4JKH
Forsyth, GA 31029

Forsyth, GA 31029

Lat: 33.033225, Lon: -83.927995

Elevation: 709

Station Type: Davis Vantage VUE

High Low Average
Temperature 58.4°F14.7°C 41.7°F5.4°C 49.3°F9.6°C
Dew Point 52.6°F11.4°C 18.3°F-7.6°C 27.3°F-2.6°C
Winds 13.9 mph 22.4 kmh 2.0 mph 3.2 kmh 6.0 mph NW9.7 kmh NW
Wind Gusts 24.0 mph38.6 kmh 9.0 mph14.5 kmh 17.0 mph27.4 kmh
Humidity 83% 26% 44%
Pressure 30.21 in1023.0 mb 30.07 in1018.3 mb -
Precipitation 0.00 in0.0 mm - -
Hour Temp Dew Point Humidity Winds Wind Gusts Pressure Precip Precip Rate Daily Precip Total
12:02 AM 56.6°F13.7°C 53.7°F12.1°C 90% 2.9 mph W4.7 kmh W 7.0 mph11.3 kmh 30.08 in1018.6 mb 0.00 in0.0 mm 0.00 in0.0 mm 0.00 in0.0 mm
12:07 AM 56.5°F13.6°C 53.6°F12.0°C 90% 2.8 mph WSW4.5 kmh WSW 7.0 mph11.3 kmh 30.08 in1018.6 mb 0.00 in0.0 mm 0.00 in0.0 mm 0.00 in0.0 mm
12:12 AM 56.5°F13.6°C 53.3°F11.8°C 89% 3.3 mph W5.3 kmh W 7.0 mph11.3 kmh 30.08 in1018.6 mb 0.00 in0.0 mm 0.00 in0.0 mm 0.00 in0.0 mm
12:17 AM 56.4°F13.6°C 53.2°F11.8°C 89% 4.1 mph W6.6 kmh W 8.0 mph12.9 kmh 30.08 in1018.6 mb 0.00 in0.0 mm 0.00 in0.0 mm 0.00 in0.0 mm
12:22 AM 56.6°F13.7°C 53.1°F11.7°C 88% 4.3 mph W6.9 kmh W 9.0 mph14.5 kmh 30.08 in1018.6 mb 0.00 in0.0 mm 0.00 in0.0 mm 0.00 in0.0 mm
12:27 AM 56.6°F13.7°C 52.8°F11.6°C 87% 3.8 mph W6.1 kmh W 9.0 mph14.5 kmh 30.08 in1018.6 mb 0.00 in0.0 mm 0.00 in0.0 mm 0.00 in0.0 mm
12:32 AM 56.6°F13.7°C 52.5°F11.4°C 86% 2.7 mph W4.3 kmh W 9.0 mph14.5 kmh 30.08 in1018.6 mb 0.00 in0.0 mm 0.00 in0.0 mm 0.00 in0.0 mm
12:37 AM 56.8°F13.8°C 52.7°F11.5°C 86% 3.9 mph WSW6.3 kmh WSW 10.0 mph16.1 kmh 30.08 in1018.6 mb 0.00 in0.0 mm 0.00 in0.0 mm 0.00 in0.0 mm
12:42 AM 57.0°F13.9°C 52.5°F11.4°C 85% 4.8 mph W7.7 kmh W 11.0 mph17.7 kmh 30.08 in1018.6 mb 0.00 in0.0 mm 0.00 in0.0 mm 0.00 in0.0 mm
12:47 AM 57.3°F14.1°C 52.5°F11.4°C 84% 3.9 mph W6.3 kmh W 11.0 mph17.7 kmh 30.08 in1018.6 mb 0.00 in0.0 mm 0.00 in0.0 mm 0.00 in0.0 mm
12:52 AM 57.3°F14.1°C 52.5°F11.4°C 84% 4.2 mph W6.8 kmh W 11.0 mph17.7 kmh 30.08 in1018.6 mb 0.00 in0.0 mm 0.00 in0.0 mm 0.00 in0.0 mm
12:57 AM 57.5°F14.2°C 52.4°F11.3°C 83% 4.4 mph W7.1 kmh W 12.0 mph19.3 kmh 30.08 in1018.6 mb 0.00 in0.0 mm 0.00 in0.0 mm 0.00 in0.0 mm
01:02 AM 57.7°F14.3°C 52.6°F11.4°C 83% 4.1 mph WSW6.6 kmh WSW 12.0 mph19.3 kmh 30.08 in1018.6 mb 0.00 in0.0 mm 0.00 in0.0 mm 0.00 in0.0 mm
01:07 AM 57.8°F14.3°C 52.4°F11.3°C 82% 7.0 mph WSW11.3 kmh WSW 12.0 mph19.3 kmh 30.08 in1018.6 mb 0.00 in0.0 mm 0.00 in0.0 mm 0.00 in0.0 mm
01:12 AM 57.9°F14.4°C 52.4°F11.3°C 82% 5.8 mph W9.3 kmh W 13.0 mph20.9 kmh 30.08 in1018.6 mb 0.00 in0.0 mm 0.00 in0.0 mm 0.00 in0.0 mm
01:17 AM 57.9°F14.4°C 52.1°F11.2°C 81% 5.7 mph W9.2 kmh W 13.0 mph20.9 kmh 30.07 in1018.3 mb 0.00 in0.0 mm 0.00 in0.0 mm 0.00 in0.0 mm
01:22 AM 58.1°F14.5°C 52.0°F11.1°C 80% 5.7 mph W9.2 kmh W 15.0 mph24.1 kmh 30.08 in1018.6 mb 0.00 in0.0 mm 0.00 in0.0 mm 0.00 in0.0 mm
01:27 AM 58.4°F14.7°C 52.0°F11.1°C 79% 9.5 mph WNW15.3 kmh WNW 20.0 mph32.2 kmh 30.08 in1018.6 mb 0.00 in0.0 mm 0.00 in0.0 mm 0.00 in0.0 mm
01:32 AM 58.3°F14.6°C 51.5°F10.8°C 78% 6.6 mph W10.6 kmh W 20.0 mph32.2 kmh 30.07 in1018.3 mb 0.00 in0.0 mm 0.00 in0.0 mm 0.00 in0.0 mm
01:37 AM 58.3°F14.6°C 51.5°F10.8°C 78% 6.5 mph WNW10.5 kmh WNW 20.0 mph32.2 kmh 30.07 in1018.3 mb 0.00 in0.0 mm 0.00 in0.0 mm 0.00 in0.0 mm
01:42 AM 58.1°F14.5°C 51.3°F10.7°C 78% 6.4 mph W10.3 kmh W 20.0 mph32.2 kmh 30.07 in1018.3 mb 0.00 in0.0 mm 0.00 in0.0 mm 0.00 in0.0 mm
01:47 AM 58.1°F14.5°C 51.3°F10.7°C 78% 8.1 mph WNW13.0 kmh WNW 21.0 mph33.8 kmh 30.07 in1018.3 mb 0.00 in0.0 mm 0.00 in0.0 mm 0.00 in0.0 mm
01:52 AM 58.0°F14.4°C 51.2°F10.7°C 78% 6.3 mph W10.1 kmh W 21.0 mph33.8 kmh 30.07 in1018.3 mb 0.00 in0.0 mm 0.00 in0.0 mm 0.00 in0.0 mm
01:57 AM 57.8°F14.3°C 51.1°F10.6°C 78% 6.4 mph WNW10.3 kmh WNW 21.0 mph33.8 kmh 30.07 in1018.3 mb 0.00 in0.0 mm 0.00 in0.0 mm 0.00 in0.0 mm
02:02 AM 57.7°F14.3°C 50.9°F10.5°C 78% 4.8 mph W7.7 kmh W 21.0 mph33.8 kmh 30.07 in1018.3 mb 0.00 in0.0 mm 0.00 in0.0 mm 0.00 in0.0 mm
02:07 AM 57.5°F14.2°C 50.8°F10.4°C 78% 7.1 mph W11.4 kmh W 18.0 mph29.0 kmh 30.07 in1018.3 mb 0.00 in0.0 mm 0.00 in0.0 mm 0.00 in0.0 mm
02:12 AM 57.3°F14.1°C 50.6°F10.3°C 78% 2.3 mph W3.7 kmh W 18.0 mph29.0 kmh 30.07 in1018.3 mb 0.00 in0.0 mm 0.00 in0.0 mm 0.00 in0.0 mm
02:17 AM 57.1°F13.9°C 50.4°F10.2°C 78% 5.5 mph WNW8.9 kmh WNW 15.0 mph24.1 kmh 30.07 in1018.3 mb 0.00 in0.0 mm 0.00 in0.0 mm 0.00 in0.0 mm
02:22 AM 57.0°F13.9°C 50.3°F10.2°C 78% 7.1 mph WNW11.4 kmh WNW 15.0 mph24.1 kmh 30.08 in1018.6 mb 0.00 in0.0 mm 0.00 in0.0 mm 0.00 in0.0 mm
02:27 AM 56.9°F13.8°C 50.1°F10.1°C 78% 7.4 mph W11.9 kmh W 18.0 mph29.0 kmh 30.08 in1018.6 mb 0.00 in0.0 mm 0.00 in0.0 mm 0.00 in0.0 mm
02:32 AM 56.8°F13.8°C 50.0°F10.0°C 78% 4.1 mph WNW6.6 kmh WNW 18.0 mph29.0 kmh 30.08 in1018.6 mb 0.00 in0.0 mm 0.00 in0.0 mm 0.00 in0.0 mm
02:37 AM 56.7°F13.7°C 49.6°F9.8°C 77% 6.7 mph WNW10.8 kmh WNW 18.0 mph29.0 kmh 30.08 in1018.6 mb 0.00 in0.0 mm 0.00 in0.0 mm 0.00 in0.0 mm
02:42 AM 56.6°F13.7°C 49.5°F9.7°C 77% 3.6 mph WNW5.8 kmh WNW 18.0 mph29.0 kmh 30.08 in1018.6 mb 0.00 in0.0 mm 0.00 in0.0 mm 0.00 in0.0 mm
02:47 AM 56.5°F13.6°C 49.5°F9.7°C 77% 6.3 mph NW10.1 kmh NW 16.0 mph25.7 kmh 30.08 in1018.6 mb 0.00 in0.0 mm 0.00 in0.0 mm 0.00 in0.0 mm
02:52 AM 56.4°F13.6°C 49.0°F9.4°C 76% 5.1 mph WNW8.2 kmh WNW 16.0 mph25.7 kmh 30.09 in1019.0 mb 0.00 in0.0 mm 0.00 in0.0 mm 0.00 in0.0 mm
02:57 AM 56.1°F13.4°C 48.0°F8.9°C 74% 6.5 mph WNW10.5 kmh WNW 16.0 mph25.7 kmh 30.09 in1019.0 mb 0.00 in0.0 mm 0.00 in0.0 mm 0.00 in0.0 mm
03:02 AM 56.0°F13.3°C 47.2°F8.4°C 72% 6.6 mph NW10.6 kmh NW 16.0 mph25.7 kmh 30.09 in1019.0 mb 0.00 in0.0 mm 0.00 in0.0 mm 0.00 in0.0 mm
03:07 AM 55.9°F13.3°C 46.7°F8.2°C 71% 5.7 mph NW9.2 kmh NW 15.0 mph24.1 kmh 30.09 in1019.0 mb 0.00 in0.0 mm 0.00 in0.0 mm 0.00 in0.0 mm
03:12 AM 55.7°F13.2°C 46.6°F8.1°C 71% 4.6 mph NW7.4 kmh NW 15.0 mph24.1 kmh 30.09 in1019.0 mb 0.00 in0.0 mm 0.00 in0.0 mm 0.00 in0.0 mm
03:17 AM 55.5°F13.1°C 45.6°F7.6°C 69% 9.0 mph NW14.5 kmh NW 15.0 mph24.1 kmh 30.10 in1019.3 mb 0.00 in0.0 mm 0.00 in0.0 mm 0.00 in0.0 mm
03:22 AM 55.5°F13.1°C 43.5°F6.4°C 64% 8.7 mph NW14.0 kmh NW 18.0 mph29.0 kmh 30.10 in1019.3 mb 0.00 in0.0 mm 0.00 in0.0 mm 0.00 in0.0 mm
03:27 AM 55.3°F12.9°C 40.9°F4.9°C 58% 10.7 mph NW17.2 kmh NW 23.0 mph37.0 kmh 30.10 in1019.3 mb 0.00 in0.0 mm 0.00 in0.0 mm 0.00 in0.0 mm
03:32 AM 55.0°F12.8°C 41.0°F5.0°C 59% 7.2 mph NW11.6 kmh NW 23.0 mph37.0 kmh 30.10 in1019.3 mb 0.00 in0.0 mm 0.00 in0.0 mm 0.00 in0.0 mm
03:37 AM 54.6°F12.6°C 40.2°F4.6°C 58% 5.9 mph WNW9.5 kmh WNW 23.0 mph37.0 kmh 30.10 in1019.3 mb 0.00 in0.0 mm 0.00 in0.0 mm 0.00 in0.0 mm
03:42 AM 54.5°F12.5°C 39.7°F4.3°C 57% 7.2 mph NW11.6 kmh NW 23.0 mph37.0 kmh 30.11 in1019.6 mb 0.00 in0.0 mm 0.00 in0.0 mm 0.00 in0.0 mm
03:47 AM 54.3°F12.4°C 39.0°F3.9°C 56% 8.2 mph NW13.2 kmh NW 17.0 mph27.4 kmh 30.10 in1019.3 mb 0.00 in0.0 mm 0.00 in0.0 mm 0.00 in0.0 mm
03:52 AM 54.1°F12.3°C 38.8°F3.8°C 56% 8.3 mph NW13.4 kmh NW 17.0 mph27.4 kmh 30.10 in1019.3 mb 0.00 in0.0 mm 0.00 in0.0 mm 0.00 in0.0 mm
03:57 AM 53.8°F12.1°C 37.6°F3.1°C 54% 6.3 mph NW10.1 kmh NW 17.0 mph27.4 kmh 30.11 in1019.6 mb 0.00 in0.0 mm 0.00 in0.0 mm 0.00 in0.0 mm
04:02 AM 53.5°F11.9°C 37.3°F2.9°C 54% 4.8 mph NW7.7 kmh NW 17.0 mph27.4 kmh 30.11 in1019.6 mb 0.00 in0.0 mm 0.00 in0.0 mm 0.00 in0.0 mm
04:07 AM 53.2°F11.8°C 36.5°F2.5°C 53% 6.2 mph NW10.0 kmh NW 17.0 mph27.4 kmh 30.11 in1019.6 mb 0.00 in0.0 mm 0.00 in0.0 mm 0.00 in0.0 mm
04:12 AM 53.0°F11.7°C 35.9°F2.2°C 52% 8.3 mph NW13.4 kmh NW 19.0 mph30.6 kmh 30.11 in1019.6 mb 0.00 in0.0 mm 0.00 in0.0 mm 0.00 in0.0 mm
04:16 AM 52.8°F11.6°C 35.7°F2.1°C 52% 5.8 mph NW9.3 kmh NW 19.0 mph30.6 kmh 30.11 in1019.6 mb 0.00 in0.0 mm 0.00 in0.0 mm 0.00 in0.0 mm
04:21 AM 52.6°F11.4°C 35.5°F1.9°C 52% 6.8 mph NW10.9 kmh NW 19.0 mph30.6 kmh 30.11 in1019.6 mb 0.00 in0.0 mm 0.00 in0.0 mm 0.00 in0.0 mm
04:26 AM 52.3°F11.3°C 35.7°F2.1°C 53% 5.2 mph NW8.4 kmh NW 19.0 mph30.6 kmh 30.12 in1020.0 mb 0.00 in0.0 mm 0.00 in0.0 mm 0.00 in0.0 mm
04:31 AM 52.0°F11.1°C 35.4°F1.9°C 53% 6.7 mph NW10.8 kmh NW 16.0 mph25.7 kmh 30.12 in1020.0 mb 0.00 in0.0 mm 0.00 in0.0 mm 0.00 in0.0 mm
04:36 AM 51.8°F11.0°C 35.2°F1.8°C 53% 5.4 mph NW8.7 kmh NW 16.0 mph25.7 kmh 30.11 in1019.6 mb 0.00 in0.0 mm 0.00 in0.0 mm 0.00 in0.0 mm
04:41 AM 51.6°F10.9°C 35.5°F1.9°C 54% 5.8 mph NW9.3 kmh NW 13.0 mph20.9 kmh 30.12 in1020.0 mb 0.00 in0.0 mm 0.00 in0.0 mm 0.00 in0.0 mm
04:46 AM 51.4°F10.8°C 35.3°F1.8°C 54% 4.6 mph NW7.4 kmh NW 15.0 mph24.1 kmh 30.12 in1020.0 mb 0.00 in0.0 mm 0.00 in0.0 mm 0.00 in0.0 mm
04:51 AM 51.1°F10.6°C 35.1°F1.7°C 54% 2.6 mph WNW4.2 kmh WNW 15.0 mph24.1 kmh 30.12 in1020.0 mb 0.00 in0.0 mm 0.00 in0.0 mm 0.00 in0.0 mm
04:56 AM 50.9°F10.5°C 34.4°F1.3°C 53% 6.9 mph NW11.1 kmh NW 17.0 mph27.4 kmh 30.12 in1020.0 mb 0.00 in0.0 mm 0.00 in0.0 mm 0.00 in0.0 mm
05:01 AM 50.7°F10.4°C 33.2°F0.7°C 51% 6.9 mph NW11.1 kmh NW 19.0 mph30.6 kmh 30.12 in1020.0 mb 0.00 in0.0 mm 0.00 in0.0 mm 0.00 in0.0 mm
05:06 AM 50.4°F10.2°C 33.4°F0.8°C 52% 5.7 mph NW9.2 kmh NW 19.0 mph30.6 kmh 30.12 in1020.0 mb 0.00 in0.0 mm 0.00 in0.0 mm 0.00 in0.0 mm
05:11 AM 50.1°F10.1°C 33.2°F0.7°C 52% 4.9 mph NW7.9 kmh NW 19.0 mph30.6 kmh 30.12 in1020.0 mb 0.00 in0.0 mm 0.00 in0.0 mm 0.00 in0.0 mm
05:16 AM 49.8°F9.9°C 31.4°F-0.3°C 49% 8.3 mph NW13.4 kmh NW 16.0 mph25.7 kmh 30.12 in1020.0 mb 0.00 in0.0 mm 0.00 in0.0 mm 0.00 in0.0 mm
05:21 AM 49.6°F9.8°C 30.1°F-1.1°C 47% 8.8 mph NW14.2 kmh NW 22.0 mph35.4 kmh 30.12 in1020.0 mb 0.00 in0.0 mm 0.00 in0.0 mm 0.00 in0.0 mm
05:26 AM 49.3°F9.6°C 29.8°F-1.2°C 47% 3.9 mph NW6.3 kmh NW 22.0 mph35.4 kmh 30.12 in1020.0 mb 0.00 in0.0 mm 0.00 in0.0 mm 0.00 in0.0 mm
05:31 AM 49.1°F9.5°C 28.6°F-1.9°C 45% 8.3 mph NNW13.4 kmh NNW 24.0 mph38.6 kmh 30.12 in1020.0 mb 0.00 in0.0 mm 0.00 in0.0 mm 0.00 in0.0 mm
05:36 AM 49.0°F9.4°C 28.5°F-1.9°C 45% 6.0 mph NW9.7 kmh NW 24.0 mph38.6 kmh 30.12 in1020.0 mb 0.00 in0.0 mm 0.00 in0.0 mm 0.00 in0.0 mm
05:41 AM 48.7°F9.3°C 28.2°F-2.1°C 45% 7.9 mph NW12.7 kmh NW 24.0 mph38.6 kmh 30.13 in1020.3 mb 0.00 in0.0 mm 0.00 in0.0 mm 0.00 in0.0 mm
05:46 AM 48.6°F9.2°C 28.6°F-1.9°C 46% 2.9 mph NW4.7 kmh NW 24.0 mph38.6 kmh 30.13 in1020.3 mb 0.00 in0.0 mm 0.00 in0.0 mm 0.00 in0.0 mm
05:51 AM 48.3°F9.1°C 28.9°F-1.7°C 47% 3.8 mph NW6.1 kmh NW 16.0 mph25.7 kmh 30.13 in1020.3 mb 0.00 in0.0 mm 0.00 in0.0 mm 0.00 in0.0 mm
05:56 AM 48.1°F8.9°C 29.3°F-1.5°C 48% 6.7 mph NW10.8 kmh NW 16.0 mph25.7 kmh 30.13 in1020.3 mb 0.00 in0.0 mm 0.00 in0.0 mm 0.00 in0.0 mm
06:01 AM 48.0°F8.9°C 28.6°F-1.9°C 47% 6.0 mph NW9.7 kmh NW 15.0 mph24.1 kmh 30.13 in1020.3 mb 0.00 in0.0 mm 0.00 in0.0 mm 0.00 in0.0 mm
06:06 AM 47.8°F8.8°C 28.5°F-1.9°C 47% 7.0 mph NW11.3 kmh NW 15.0 mph24.1 kmh 30.13 in1020.3 mb 0.00 in0.0 mm 0.00 in0.0 mm 0.00 in0.0 mm
06:11 AM 47.7°F8.7°C 28.4°F-2.0°C 47% 7.7 mph NW12.4 kmh NW 15.0 mph24.1 kmh 30.13 in1020.3 mb 0.00 in0.0 mm 0.00 in0.0 mm 0.00 in0.0 mm
06:16 AM 47.7°F8.7°C 28.4°F-2.0°C 47% 7.5 mph NW12.1 kmh NW 16.0 mph25.7 kmh 30.13 in1020.3 mb 0.00 in0.0 mm 0.00 in0.0 mm 0.00 in0.0 mm
06:21 AM 47.4°F8.6°C 28.6°F-1.9°C 48% 4.8 mph NW7.7 kmh NW 16.0 mph25.7 kmh 30.13 in1020.3 mb 0.00 in0.0 mm 0.00 in0.0 mm 0.00 in0.0 mm
06:26 AM 47.3°F8.5°C 28.5°F-1.9°C 48% 5.6 mph NW9.0 kmh NW 16.0 mph25.7 kmh 30.13 in1020.3 mb 0.00 in0.0 mm 0.00 in0.0 mm 0.00 in0.0 mm
06:31 AM 47.2°F8.4°C 27.9°F-2.3°C 47% 6.7 mph NW10.8 kmh NW 16.0 mph25.7 kmh 30.13 in1020.3 mb 0.00 in0.0 mm 0.00 in0.0 mm 0.00 in0.0 mm
06:36 AM 47.0°F8.3°C 28.3°F-2.1°C 48% 4.7 mph NW7.6 kmh NW 13.0 mph20.9 kmh 30.13 in1020.3 mb 0.00 in0.0 mm 0.00 in0.0 mm 0.00 in0.0 mm
06:41 AM 46.8°F8.2°C 28.1°F-2.2°C 48% 5.3 mph NW8.5 kmh NW 13.0 mph20.9 kmh 30.13 in1020.3 mb 0.00 in0.0 mm 0.00 in0.0 mm 0.00 in0.0 mm
06:46 AM 46.7°F8.2°C 28.5°F-1.9°C 49% 4.1 mph NW6.6 kmh NW 16.0 mph25.7 kmh 30.14 in1020.7 mb 0.00 in0.0 mm 0.00 in0.0 mm 0.00 in0.0 mm
06:51 AM 46.5°F8.1°C 28.3°F-2.1°C 49% 4.9 mph NW7.9 kmh NW 16.0 mph25.7 kmh 30.14 in1020.7 mb 0.00 in0.0 mm 0.00 in0.0 mm 0.00 in0.0 mm
06:56 AM 46.4°F8.0°C 28.2°F-2.1°C 49% 3.4 mph NW5.5 kmh NW 16.0 mph25.7 kmh 30.14 in1020.7 mb 0.00 in0.0 mm 0.00 in0.0 mm 0.00 in0.0 mm
07:01 AM 46.2°F7.9°C 28.5°F-1.9°C 50% 4.0 mph NW6.4 kmh NW 16.0 mph25.7 kmh 30.14 in1020.7 mb 0.00 in0.0 mm 0.00 in0.0 mm 0.00 in0.0 mm
07:06 AM 46.2°F7.9°C 28.0°F-2.2°C 49% 4.6 mph NW7.4 kmh NW 16.0 mph25.7 kmh 30.14 in1020.7 mb 0.00 in0.0 mm 0.00 in0.0 mm 0.00 in0.0 mm
07:11 AM 46.1°F7.8°C 28.4°F-2.0°C 50% 4.1 mph NW6.6 kmh NW 18.0 mph29.0 kmh 30.14 in1020.7 mb 0.00 in0.0 mm 0.00 in0.0 mm 0.00 in0.0 mm
07:16 AM 46.0°F7.8°C 28.4°F-2.0°C 50% 5.5 mph NW8.9 kmh NW 18.0 mph29.0 kmh 30.14 in1020.7 mb 0.00 in0.0 mm 0.00 in0.0 mm 0.00 in0.0 mm
07:21 AM 45.8°F7.7°C 28.2°F-2.1°C 50% 2.2 mph NW3.5 kmh NW 18.0 mph29.0 kmh 30.14 in1020.7 mb 0.00 in0.0 mm 0.00 in0.0 mm 0.00 in0.0 mm
07:26 AM 45.5°F7.5°C 27.9°F-2.3°C 50% 3.8 mph NW6.1 kmh NW 13.0 mph20.9 kmh 30.14 in1020.7 mb 0.00 in0.0 mm 0.00 in0.0 mm 0.00 in0.0 mm
07:31 AM 45.5°F7.5°C 27.9°F-2.3°C 50% 3.2 mph NW5.1 kmh NW 13.0 mph20.9 kmh 30.14 in1020.7 mb 0.00 in0.0 mm 0.00 in0.0 mm 0.00 in0.0 mm
07:36 AM 45.4°F7.4°C 27.8°F-2.3°C 50% 5.3 mph NW8.5 kmh NW 13.0 mph20.9 kmh 30.15 in1021.0 mb 0.00 in0.0 mm 0.00 in0.0 mm 0.00 in0.0 mm
07:41 AM 45.3°F7.4°C 27.7°F-2.4°C 50% 5.5 mph NW8.9 kmh NW 15.0 mph24.1 kmh 30.15 in1021.0 mb 0.00 in0.0 mm 0.00 in0.0 mm 0.00 in0.0 mm
07:46 AM 45.4°F7.4°C 27.3°F-2.6°C 49% 4.8 mph NW7.7 kmh NW 15.0 mph24.1 kmh 30.14 in1020.7 mb 0.00 in0.0 mm 0.00 in0.0 mm 0.00 in0.0 mm
07:51 AM 45.3°F7.4°C 27.7°F-2.4°C 50% 6.3 mph NW10.1 kmh NW 15.0 mph24.1 kmh 30.15 in1021.0 mb 0.00 in0.0 mm 0.00 in0.0 mm 0.00 in0.0 mm
07:56 AM 45.3°F7.4°C 27.2°F-2.7°C 49% 4.9 mph NW7.9 kmh NW 16.0 mph25.7 kmh 30.15 in1021.0 mb 0.00 in0.0 mm 0.00 in0.0 mm 0.00 in0.0 mm
08:01 AM 45.2°F7.3°C 27.1°F-2.7°C 49% 6.0 mph NW9.7 kmh NW 16.0 mph25.7 kmh 30.15 in1021.0 mb 0.00 in0.0 mm 0.00 in0.0 mm 0.00 in0.0 mm
08:06 AM 45.1°F7.3°C 27.5°F-2.5°C 50% 5.0 mph NNW8.0 kmh NNW 16.0 mph25.7 kmh 30.15 in1021.0 mb 0.00 in0.0 mm 0.00 in0.0 mm 0.00 in0.0 mm
08:11 AM 45.1°F7.3°C 27.5°F-2.5°C 50% 6.5 mph NW10.5 kmh NW 13.0 mph20.9 kmh 30.15 in1021.0 mb 0.00 in0.0 mm 0.00 in0.0 mm 0.00 in0.0 mm
08:16 AM 45.0°F7.2°C 27.4°F-2.6°C 50% 4.2 mph NW6.8 kmh NW 13.0 mph20.9 kmh 30.15 in1021.0 mb 0.00 in0.0 mm 0.00 in0.0 mm 0.00 in0.0 mm
08:21 AM 44.8°F7.1°C 27.8°F-2.3°C 51% 4.1 mph NW6.6 kmh NW 13.0 mph20.9 kmh 30.15 in1021.0 mb 0.00 in0.0 mm 0.00 in0.0 mm 0.00 in0.0 mm
08:26 AM 44.7°F7.1°C 27.6°F-2.4°C 51% 4.0 mph NW6.4 kmh NW 13.0 mph20.9 kmh 30.15 in1021.0 mb 0.00 in0.0 mm 0.00 in0.0 mm 0.00 in0.0 mm
08:31 AM 44.4°F6.9°C 27.9°F-2.3°C 52% 2.0 mph NW3.2 kmh NW 11.0 mph17.7 kmh 30.15 in1021.0 mb 0.00 in0.0 mm 0.00 in0.0 mm 0.00 in0.0 mm
08:36 AM 44.2°F6.8°C 28.1°F-2.2°C 53% 2.3 mph WNW3.7 kmh WNW 11.0 mph17.7 kmh 30.16 in1021.3 mb 0.00 in0.0 mm 0.00 in0.0 mm 0.00 in0.0 mm
08:41 AM 44.1°F6.7°C 28.1°F-2.2°C 53% 3.2 mph WNW5.1 kmh WNW 11.0 mph17.7 kmh 30.16 in1021.3 mb 0.00 in0.0 mm 0.00 in0.0 mm 0.00 in0.0 mm
08:46 AM 44.1°F6.7°C 28.1°F-2.2°C 53% 3.7 mph NW6.0 kmh NW 9.0 mph14.5 kmh 30.16 in1021.3 mb 0.00 in0.0 mm 0.00 in0.0 mm 0.00 in0.0 mm
08:51 AM 44.0°F6.7°C 28.0°F-2.2°C 53% 3.4 mph NW5.5 kmh NW 9.0 mph14.5 kmh 30.16 in1021.3 mb 0.00 in0.0 mm 0.00 in0.0 mm 0.00 in0.0 mm
08:56 AM 44.0°F6.7°C 28.0°F-2.2°C 53% 2.9 mph NW4.7 kmh NW 9.0 mph14.5 kmh 30.16 in1021.3 mb 0.00 in0.0 mm 0.00 in0.0 mm 0.00 in0.0 mm
09:01 AM 44.1°F6.7°C 28.5°F-1.9°C 54% 2.1 mph NW3.4 kmh NW 9.0 mph14.5 kmh 30.17 in1021.7 mb 0.00 in0.0 mm 0.00 in0.0 mm 0.00 in0.0 mm
09:06 AM 44.1°F6.7°C 28.5°F-1.9°C 54% 4.6 mph NW7.4 kmh NW 9.0 mph14.5 kmh 30.17 in1021.7 mb 0.00 in0.0 mm 0.00 in0.0 mm 0.00 in0.0 mm
09:11 AM 44.1°F6.7°C 28.5°F-1.9°C 54% 4.4 mph NW7.1 kmh NW 11.0 mph17.7 kmh 30.17 in1021.7 mb 0.00 in0.0 mm 0.00 in0.0 mm 0.00 in0.0 mm
09:15 AM 44.1°F6.7°C 28.5°F-1.9°C 54% 5.7 mph NW9.2 kmh NW 13.0 mph20.9 kmh 30.17 in1021.7 mb 0.00 in0.0 mm 0.00 in0.0 mm 0.00 in0.0 mm
09:20 AM 44.3°F6.8°C 28.7°F-1.8°C 54% 4.3 mph NW6.9 kmh NW 13.0 mph20.9 kmh 30.17 in1021.7 mb 0.00 in0.0 mm 0.00 in0.0 mm 0.00 in0.0 mm
09:25 AM 44.4°F6.9°C 28.3°F-2.1°C 53% 5.5 mph NW8.9 kmh NW 13.0 mph20.9 kmh 30.17 in1021.7 mb 0.00 in0.0 mm 0.00 in0.0 mm 0.00 in0.0 mm
09:30 AM 44.5°F6.9°C 28.4°F-2.0°C 53% 5.3 mph NW8.5 kmh NW 13.0 mph20.9 kmh 30.17 in1021.7 mb 0.00 in0.0 mm 0.00 in0.0 mm 0.00 in0.0 mm
09:35 AM 44.6°F7.0°C 28.5°F-1.9°C 53% 6.6 mph NNW10.6 kmh NNW 14.0 mph22.5 kmh 30.18 in1022.0 mb 0.00 in0.0 mm 0.00 in0.0 mm 0.00 in0.0 mm
09:40 AM 44.8°F7.1°C 27.7°F-2.4°C 51% 8.4 mph NW13.5 kmh NW 16.0 mph25.7 kmh 30.18 in1022.0 mb 0.00 in0.0 mm 0.00 in0.0 mm 0.00 in0.0 mm
09:45 AM 44.9°F7.2°C 27.8°F-2.3°C 51% 6.2 mph NW10.0 kmh NW 16.0 mph25.7 kmh 30.18 in1022.0 mb 0.00 in0.0 mm 0.00 in0.0 mm 0.00 in0.0 mm
09:50 AM 45.1°F7.3°C 28.0°F-2.2°C 51% 6.5 mph NNW10.5 kmh NNW 16.0 mph25.7 kmh 30.18 in1022.0 mb 0.00 in0.0 mm 0.00 in0.0 mm 0.00 in0.0 mm
09:55 AM 45.3°F7.4°C 27.7°F-2.4°C 50% 7.7 mph NW12.4 kmh NW 18.0 mph29.0 kmh 30.18 in1022.0 mb 0.00 in0.0 mm 0.00 in0.0 mm 0.00 in0.0 mm
10:00 AM 45.5°F7.5°C 27.4°F-2.6°C 49% 8.8 mph NW14.2 kmh NW 18.0 mph29.0 kmh 30.19 in1022.4 mb 0.00 in0.0 mm 0.00 in0.0 mm 0.00 in0.0 mm
10:05 AM 45.6°F7.6°C 27.5°F-2.5°C 49% 6.8 mph NW10.9 kmh NW 18.0 mph29.0 kmh 30.19 in1022.4 mb 0.00 in0.0 mm 0.00 in0.0 mm 0.00 in0.0 mm
10:10 AM 45.8°F7.7°C 26.6°F-3.0°C 47% 9.6 mph NW15.4 kmh NW 18.0 mph29.0 kmh 30.19 in1022.4 mb 0.00 in0.0 mm 0.00 in0.0 mm 0.00 in0.0 mm
10:15 AM 46.0°F7.8°C 27.3°F-2.6°C 48% 3.4 mph NW5.5 kmh NW 18.0 mph29.0 kmh 30.19 in1022.4 mb 0.00 in0.0 mm 0.00 in0.0 mm 0.00 in0.0 mm
10:20 AM 46.3°F7.9°C 27.1°F-2.7°C 47% 5.2 mph NNW8.4 kmh NNW 17.0 mph27.4 kmh 30.20 in1022.7 mb 0.00 in0.0 mm 0.00 in0.0 mm 0.00 in0.0 mm
10:25 AM 46.4°F8.0°C 27.2°F-2.7°C 47% 5.8 mph NW9.3 kmh NW 17.0 mph27.4 kmh 30.20 in1022.7 mb 0.00 in0.0 mm 0.00 in0.0 mm 0.00 in0.0 mm
10:31 AM 46.4°F8.0°C 26.6°F-3.0°C 46% 7.5 mph NW12.1 kmh NW 17.0 mph27.4 kmh 30.20 in1022.7 mb 0.00 in0.0 mm 0.00 in0.0 mm 0.00 in0.0 mm
10:35 AM 46.5°F8.1°C 26.7°F-2.9°C 46% 7.0 mph NW11.3 kmh NW 17.0 mph27.4 kmh 30.20 in1022.7 mb 0.00 in0.0 mm 0.00 in0.0 mm 0.00 in0.0 mm
10:40 AM 46.7°F8.2°C 27.4°F-2.6°C 47% 3.8 mph NW6.1 kmh NW 18.0 mph29.0 kmh 30.20 in1022.7 mb 0.00 in0.0 mm 0.00 in0.0 mm 0.00 in0.0 mm
10:46 AM 46.9°F8.3°C 27.1°F-2.7°C 46% 6.8 mph NW10.9 kmh NW 18.0 mph29.0 kmh 30.20 in1022.7 mb 0.00 in0.0 mm 0.00 in0.0 mm 0.00 in0.0 mm
10:51 AM 46.9°F8.3°C 26.5°F-3.1°C 45% 8.7 mph NW14.0 kmh NW 18.0 mph29.0 kmh 30.20 in1022.7 mb 0.00 in0.0 mm 0.00 in0.0 mm 0.00 in0.0 mm
10:56 AM 47.0°F8.3°C 26.6°F-3.0°C 45% 9.6 mph NW15.4 kmh NW 18.0 mph29.0 kmh 30.20 in1022.7 mb 0.00 in0.0 mm 0.00 in0.0 mm 0.00 in0.0 mm
11:01 AM 47.2°F8.4°C 26.8°F-2.9°C 45% 6.5 mph NW10.5 kmh NW 17.0 mph27.4 kmh 30.20 in1022.7 mb 0.00 in0.0 mm 0.00 in0.0 mm 0.00 in0.0 mm
11:06 AM 47.3°F8.5°C 26.3°F-3.2°C 44% 9.7 mph NW15.6 kmh NW 17.0 mph27.4 kmh 30.20 in1022.7 mb 0.00 in0.0 mm 0.00 in0.0 mm 0.00 in0.0 mm
11:11 AM 47.4°F8.6°C 25.9°F-3.4°C 43% 9.6 mph NNW15.4 kmh NNW 18.0 mph29.0 kmh 30.20 in1022.7 mb 0.00 in0.0 mm 0.00 in0.0 mm 0.00 in0.0 mm
11:16 AM 47.5°F8.6°C 26.0°F-3.3°C 43% 7.2 mph NW11.6 kmh NW 18.0 mph29.0 kmh 30.21 in1023.0 mb 0.00 in0.0 mm 0.00 in0.0 mm 0.00 in0.0 mm
11:21 AM 47.8°F8.8°C 26.2°F-3.2°C 43% 4.9 mph NW7.9 kmh NW 18.0 mph29.0 kmh 30.20 in1022.7 mb 0.00 in0.0 mm 0.00 in0.0 mm 0.00 in0.0 mm
11:26 AM 47.9°F8.8°C 25.7°F-3.5°C 42% 5.7 mph NW9.2 kmh NW 20.0 mph32.2 kmh 30.20 in1022.7 mb 0.00 in0.0 mm 0.00 in0.0 mm 0.00 in0.0 mm
11:31 AM 48.1°F8.9°C 24.7°F-4.1°C 40% 8.0 mph NW12.9 kmh NW 20.0 mph32.2 kmh 30.20 in1022.7 mb 0.00 in0.0 mm 0.00 in0.0 mm 0.00 in0.0 mm
11:36 AM 48.2°F9.0°C 24.8°F-4.0°C 40% 8.5 mph NW13.7 kmh NW 20.0 mph32.2 kmh 30.20 in1022.7 mb 0.00 in0.0 mm 0.00 in0.0 mm 0.00 in0.0 mm
11:41 AM 48.3°F9.1°C 24.9°F-3.9°C 40% 7.1 mph NW11.4 kmh NW 20.0 mph32.2 kmh 30.20 in1022.7 mb 0.00 in0.0 mm 0.00 in0.0 mm 0.00 in0.0 mm
11:46 AM 48.6°F9.2°C 24.7°F-4.1°C 39% 5.6 mph NW9.0 kmh NW 19.0 mph30.6 kmh 30.20 in1022.7 mb 0.00 in0.0 mm 0.00 in0.0 mm 0.00 in0.0 mm
11:51 AM 48.8°F9.3°C 25.3°F-3.7°C 40% 4.8 mph NW7.7 kmh NW 19.0 mph30.6 kmh 30.20 in1022.7 mb 0.00 in0.0 mm 0.00 in0.0 mm 0.00 in0.0 mm
11:56 AM 49.1°F9.5°C 24.4°F-4.2°C 38% 6.4 mph NW10.3 kmh NW 15.0 mph24.1 kmh 30.20 in1022.7 mb 0.00 in0.0 mm 0.00 in0.0 mm 0.00 in0.0 mm
12:01 PM 49.4°F9.7°C 24.0°F-4.4°C 37% 7.6 mph NW12.2 kmh NW 18.0 mph29.0 kmh 30.19 in1022.4 mb 0.00 in0.0 mm 0.00 in0.0 mm 0.00 in0.0 mm
12:06 PM 49.5°F9.7°C 22.7°F-5.2°C 35% 8.8 mph NW14.2 kmh NW 18.0 mph29.0 kmh 30.19 in1022.4 mb 0.00 in0.0 mm 0.00 in0.0 mm 0.00 in0.0 mm
12:11 PM 49.6°F9.8°C 21.4°F-5.9°C 33% 8.4 mph NW13.5 kmh NW 18.0 mph29.0 kmh 30.19 in1022.4 mb 0.00 in0.0 mm 0.00 in0.0 mm 0.00 in0.0 mm
12:16 PM 49.8°F9.9°C 22.5°F-5.3°C 34% 7.6 mph NW12.2 kmh NW 18.0 mph29.0 kmh 30.19 in1022.4 mb 0.00 in0.0 mm 0.00 in0.0 mm 0.00 in0.0 mm
12:21 PM 50.0°F10.0°C 21.0°F-6.1°C 32% 9.7 mph NW15.6 kmh NW 22.0 mph35.4 kmh 30.19 in1022.4 mb 0.00 in0.0 mm 0.00 in0.0 mm 0.00 in0.0 mm
12:26 PM 49.9°F9.9°C 21.7°F-5.7°C 33% 6.3 mph NW10.1 kmh NW 22.0 mph35.4 kmh 30.18 in1022.0 mb 0.00 in0.0 mm 0.00 in0.0 mm 0.00 in0.0 mm
12:31 PM 49.9°F9.9°C 21.7°F-5.7°C 33% 7.3 mph NW11.7 kmh NW 22.0 mph35.4 kmh 30.18 in1022.0 mb 0.00 in0.0 mm 0.00 in0.0 mm 0.00 in0.0 mm
12:36 PM 50.0°F10.0°C 21.8°F-5.7°C 33% 9.6 mph NW15.4 kmh NW 22.0 mph35.4 kmh 30.18 in1022.0 mb 0.00 in0.0 mm 0.00 in0.0 mm 0.00 in0.0 mm
12:41 PM 50.2°F10.1°C 22.0°F-5.6°C 33% 6.4 mph NW10.3 kmh NW 19.0 mph30.6 kmh 30.17 in1021.7 mb 0.00 in0.0 mm 0.00 in0.0 mm 0.00 in0.0 mm
12:46 PM 50.9°F10.5°C 21.1°F-6.1°C 31% 8.0 mph WNW12.9 kmh WNW 20.0 mph32.2 kmh 30.17 in1021.7 mb 0.00 in0.0 mm 0.00 in0.0 mm 0.00 in0.0 mm
12:51 PM 50.6°F10.3°C 22.3°F-5.4°C 33% 7.0 mph WNW11.3 kmh WNW 20.0 mph32.2 kmh 30.17 in1021.7 mb 0.00 in0.0 mm 0.00 in0.0 mm 0.00 in0.0 mm
12:56 PM 50.9°F10.5°C 21.8°F-5.7°C 32% 7.8 mph NW12.6 kmh NW 20.0 mph32.2 kmh 30.16 in1021.3 mb 0.00 in0.0 mm 0.00 in0.0 mm 0.00 in0.0 mm
01:01 PM 50.6°F10.3°C 20.8°F-6.2°C 31% 9.4 mph NW15.1 kmh NW 20.0 mph32.2 kmh 30.16 in1021.3 mb 0.00 in0.0 mm 0.00 in0.0 mm 0.00 in0.0 mm
01:06 PM 50.7°F10.4°C 22.4°F-5.3°C 33% 10.1 mph WNW16.3 kmh WNW 19.0 mph30.6 kmh 30.16 in1021.3 mb 0.00 in0.0 mm 0.00 in0.0 mm 0.00 in0.0 mm
01:11 PM 50.8°F10.4°C 21.8°F-5.7°C 32% 11.0 mph WNW17.7 kmh WNW 18.0 mph29.0 kmh 30.16 in1021.3 mb 0.00 in0.0 mm 0.00 in0.0 mm 0.00 in0.0 mm
01:16 PM 51.0°F10.6°C 21.2°F-6.0°C 31% 8.6 mph NW13.8 kmh NW 18.0 mph29.0 kmh 30.15 in1021.0 mb 0.00 in0.0 mm 0.00 in0.0 mm 0.00 in0.0 mm
01:21 PM 51.3°F10.7°C 21.4°F-5.9°C 31% 7.8 mph WNW12.6 kmh WNW 19.0 mph30.6 kmh 30.15 in1021.0 mb 0.00 in0.0 mm 0.00 in0.0 mm 0.00 in0.0 mm
01:26 PM 51.4°F10.8°C 21.7°F-5.7°C 31% 8.3 mph NW13.4 kmh NW 20.0 mph32.2 kmh 30.15 in1021.0 mb 0.00 in0.0 mm 0.00 in0.0 mm 0.00 in0.0 mm
01:31 PM 51.4°F10.8°C 18.3°F-7.6°C 27% 9.7 mph NW15.6 kmh NW 20.0 mph32.2 kmh 30.15 in1021.0 mb 0.00 in0.0 mm 0.00 in0.0 mm 0.00 in0.0 mm
01:36 PM 51.3°F10.7°C 19.9°F-6.7°C 29% 6.9 mph NW11.1 kmh NW 22.0 mph35.4 kmh 30.15 in1021.0 mb 0.00 in0.0 mm 0.00 in0.0 mm 0.00 in0.0 mm
01:41 PM 51.7°F10.9°C 20.2°F-6.6°C 29% 7.5 mph NW12.1 kmh NW 22.0 mph35.4 kmh 30.14 in1020.7 mb 0.00 in0.0 mm 0.00 in0.0 mm 0.00 in0.0 mm
01:46 PM 51.9°F11.1°C 20.4°F-6.4°C 29% 7.6 mph NNW12.2 kmh NNW 22.0 mph35.4 kmh 30.13 in1020.3 mb 0.00 in0.0 mm 0.00 in0.0 mm 0.00 in0.0 mm
01:51 PM 52.4°F11.3°C 22.4°F-5.3°C 31% 3.4 mph NW5.5 kmh NW 18.0 mph29.0 kmh 30.13 in1020.3 mb 0.00 in0.0 mm 0.00 in0.0 mm 0.00 in0.0 mm
01:56 PM 52.0°F11.1°C 21.3°F-5.9°C 30% 6.7 mph NW10.8 kmh NW 18.0 mph29.0 kmh 30.13 in1020.3 mb 0.00 in0.0 mm 0.00 in0.0 mm 0.00 in0.0 mm
02:01 PM 51.7°F10.9°C 20.2°F-6.6°C 29% 13.2 mph WNW21.2 kmh WNW 21.0 mph33.8 kmh 30.13 in1020.3 mb 0.00 in0.0 mm 0.00 in0.0 mm 0.00 in0.0 mm
02:06 PM 51.8°F11.0°C 20.3°F-6.5°C 29% 11.2 mph WNW18.0 kmh WNW 21.0 mph33.8 kmh 30.13 in1020.3 mb 0.00 in0.0 mm 0.00 in0.0 mm 0.00 in0.0 mm
02:11 PM 51.9°F11.1°C 19.6°F-6.9°C 28% 8.5 mph NW13.7 kmh NW 21.0 mph33.8 kmh 30.13 in1020.3 mb 0.00 in0.0 mm 0.00 in0.0 mm 0.00 in0.0 mm
02:15 PM 51.8°F11.0°C 19.5°F-6.9°C 28% 6.4 mph NW10.3 kmh NW 21.0 mph33.8 kmh 30.12 in1020.0 mb 0.00 in0.0 mm 0.00 in0.0 mm 0.00 in0.0 mm
02:20 PM 52.1°F11.2°C 20.6°F-6.3°C 29% 5.8 mph WNW9.3 kmh WNW 19.0 mph30.6 kmh 30.12 in1020.0 mb 0.00 in0.0 mm 0.00 in0.0 mm 0.00 in0.0 mm
02:25 PM 52.0°F11.1°C 21.3°F-5.9°C 30% 8.0 mph NW12.9 kmh NW 20.0 mph32.2 kmh 30.12 in1020.0 mb 0.00 in0.0 mm 0.00 in0.0 mm 0.00 in0.0 mm
02:30 PM 52.0°F11.1°C 19.7°F-6.8°C 28% 11.6 mph WNW18.7 kmh WNW 21.0 mph33.8 kmh 30.12 in1020.0 mb 0.00 in0.0 mm 0.00 in0.0 mm 0.00 in0.0 mm
02:35 PM 52.2°F11.2°C 19.9°F-6.7°C 28% 7.1 mph W11.4 kmh W 22.0 mph35.4 kmh 30.12 in1020.0 mb 0.00 in0.0 mm 0.00 in0.0 mm 0.00 in0.0 mm
02:40 PM 52.1°F11.2°C 19.8°F-6.8°C 28% 11.2 mph WNW18.0 kmh WNW 22.0 mph35.4 kmh 30.12 in1020.0 mb 0.00 in0.0 mm 0.00 in0.0 mm 0.00 in0.0 mm
02:45 PM 52.1°F11.2°C 19.8°F-6.8°C 28% 10.9 mph NW17.5 kmh NW 22.0 mph35.4 kmh 30.12 in1020.0 mb 0.00 in0.0 mm 0.00 in0.0 mm 0.00 in0.0 mm
02:50 PM 52.1°F11.2°C 20.6°F-6.3°C 29% 8.6 mph WNW13.8 kmh WNW 22.0 mph35.4 kmh 30.12 in1020.0 mb 0.00 in0.0 mm 0.00 in0.0 mm 0.00 in0.0 mm
02:55 PM 52.3°F11.3°C 20.8°F-6.2°C 29% 7.5 mph NW12.1 kmh NW 22.0 mph35.4 kmh 30.12 in1020.0 mb 0.00 in0.0 mm 0.00 in0.0 mm 0.00 in0.0 mm
03:00 PM 52.6°F11.4°C 21.0°F-6.1°C 29% 6.3 mph W10.1 kmh W 21.0 mph33.8 kmh 30.12 in1020.0 mb 0.00 in0.0 mm 0.00 in0.0 mm 0.00 in0.0 mm
03:05 PM 52.5°F11.4°C 20.9°F-6.2°C 29% 7.0 mph WNW11.3 kmh WNW 21.0 mph33.8 kmh 30.11 in1019.6 mb 0.00 in0.0 mm 0.00 in0.0 mm 0.00 in0.0 mm
03:10 PM 52.6°F11.4°C 21.0°F-6.1°C 29% 8.7 mph W14.0 kmh W 18.0 mph29.0 kmh 30.11 in1019.6 mb 0.00 in0.0 mm 0.00 in0.0 mm 0.00 in0.0 mm
03:15 PM 52.5°F11.4°C 20.1°F-6.6°C 28% 13.9 mph WNW22.4 kmh WNW 21.0 mph33.8 kmh 30.12 in1020.0 mb 0.00 in0.0 mm 0.00 in0.0 mm 0.00 in0.0 mm
03:20 PM 52.4°F11.3°C 20.8°F-6.2°C 29% 4.4 mph NW7.1 kmh NW 21.0 mph33.8 kmh 30.11 in1019.6 mb 0.00 in0.0 mm 0.00 in0.0 mm 0.00 in0.0 mm
03:25 PM 52.5°F11.4°C 20.9°F-6.2°C 29% 9.9 mph W15.9 kmh W 24.0 mph38.6 kmh 30.11 in1019.6 mb 0.00 in0.0 mm 0.00 in0.0 mm 0.00 in0.0 mm
03:30 PM 53.0°F11.7°C 21.4°F-5.9°C 29% 7.9 mph NW12.7 kmh NW 24.0 mph38.6 kmh 30.11 in1019.6 mb 0.00 in0.0 mm 0.00 in0.0 mm 0.00 in0.0 mm
03:35 PM 53.0°F11.7°C 21.4°F-5.9°C 29% 6.2 mph NW10.0 kmh NW 24.0 mph38.6 kmh 30.11 in1019.6 mb 0.00 in0.0 mm 0.00 in0.0 mm 0.00 in0.0 mm
03:40 PM 53.2°F11.8°C 21.5°F-5.8°C 29% 5.1 mph NW8.2 kmh NW 24.0 mph38.6 kmh 30.11 in1019.6 mb 0.00 in0.0 mm 0.00 in0.0 mm 0.00 in0.0 mm
03:45 PM 53.2°F11.8°C 20.7°F-6.3°C 28% 8.1 mph WNW13.0 kmh WNW 18.0 mph29.0 kmh 30.11 in1019.6 mb 0.00 in0.0 mm 0.00 in0.0 mm 0.00 in0.0 mm
03:50 PM 53.4°F11.9°C 21.7°F-5.7°C 29% 5.5 mph WNW8.9 kmh WNW 18.0 mph29.0 kmh 30.11 in1019.6 mb 0.00 in0.0 mm 0.00 in0.0 mm 0.00 in0.0 mm
03:55 PM 53.4°F11.9°C 20.9°F-6.2°C 28% 9.1 mph WNW14.6 kmh WNW 19.0 mph30.6 kmh 30.10 in1019.3 mb 0.00 in0.0 mm 0.00 in0.0 mm 0.00 in0.0 mm
04:00 PM 53.6°F12.0°C 21.2°F-6.0°C 28% 6.9 mph W11.1 kmh W 19.0 mph30.6 kmh 30.10 in1019.3 mb 0.00 in0.0 mm 0.00 in0.0 mm 0.00 in0.0 mm
04:05 PM 53.6°F12.0°C 22.9°F-5.1°C 30% 7.2 mph WNW11.6 kmh WNW 19.0 mph30.6 kmh 30.10 in1019.3 mb 0.00 in0.0 mm 0.00 in0.0 mm 0.00 in0.0 mm
04:10 PM 53.7°F12.1°C 21.3°F-5.9°C 28% 6.8 mph WNW10.9 kmh WNW 19.0 mph30.6 kmh 30.10 in1019.3 mb 0.00 in0.0 mm 0.00 in0.0 mm 0.00 in0.0 mm
04:15 PM 54.1°F12.3°C 22.3°F-5.4°C 29% 4.9 mph NW7.9 kmh NW 16.0 mph25.7 kmh 30.10 in1019.3 mb 0.00 in0.0 mm 0.00 in0.0 mm 0.00 in0.0 mm
04:20 PM 53.8°F12.1°C 20.4°F-6.4°C 27% 4.2 mph NW6.8 kmh NW 16.0 mph25.7 kmh 30.10 in1019.3 mb 0.00 in0.0 mm 0.00 in0.0 mm 0.00 in0.0 mm
04:25 PM 53.8°F12.1°C 21.2°F-6.0°C 28% 3.4 mph WNW5.5 kmh WNW 13.0 mph20.9 kmh 30.10 in1019.3 mb 0.00 in0.0 mm 0.00 in0.0 mm 0.00 in0.0 mm
04:30 PM 53.3°F11.8°C 20.0°F-6.7°C 27% 7.1 mph NW11.4 kmh NW 15.0 mph24.1 kmh 30.10 in1019.3 mb 0.00 in0.0 mm 0.00 in0.0 mm 0.00 in0.0 mm
04:35 PM 53.4°F11.9°C 21.1°F-6.1°C 28% 6.6 mph W10.6 kmh W 15.0 mph24.1 kmh 30.10 in1019.3 mb 0.00 in0.0 mm 0.00 in0.0 mm 0.00 in0.0 mm
04:40 PM 53.5°F11.9°C 21.2°F-6.0°C 28% 3.8 mph NW6.1 kmh NW 15.0 mph24.1 kmh 30.10 in1019.3 mb 0.00 in0.0 mm 0.00 in0.0 mm 0.00 in0.0 mm
04:45 PM 53.8°F12.1°C 22.1°F-5.5°C 29% 8.1 mph WNW13.0 kmh WNW 15.0 mph24.1 kmh 30.10 in1019.3 mb 0.00 in0.0 mm 0.00 in0.0 mm 0.00 in0.0 mm
04:50 PM 53.6°F12.0°C 19.4°F-7.0°C 26% 9.4 mph NW15.1 kmh NW 22.0 mph35.4 kmh 30.10 in1019.3 mb 0.00 in0.0 mm 0.00 in0.0 mm 0.00 in0.0 mm
04:55 PM 53.6°F12.0°C 20.2°F-6.6°C 27% 6.9 mph WNW11.1 kmh WNW 22.0 mph35.4 kmh 30.10 in1019.3 mb 0.00 in0.0 mm 0.00 in0.0 mm 0.00 in0.0 mm
05:00 PM 53.4°F11.9°C 20.1°F-6.6°C 27% 7.6 mph NW12.2 kmh NW 22.0 mph35.4 kmh 30.10 in1019.3 mb 0.00 in0.0 mm 0.00 in0.0 mm 0.00 in0.0 mm
05:05 PM 53.5°F11.9°C 20.1°F-6.6°C 27% 7.5 mph NW12.1 kmh NW 22.0 mph35.4 kmh 30.10 in1019.3 mb 0.00 in0.0 mm 0.00 in0.0 mm 0.00 in0.0 mm
05:10 PM 53.4°F11.9°C 20.1°F-6.6°C 27% 6.5 mph NW10.5 kmh NW 21.0 mph33.8 kmh 30.10 in1019.3 mb 0.00 in0.0 mm 0.00 in0.0 mm 0.00 in0.0 mm
05:15 PM 53.5°F11.9°C 20.1°F-6.6°C 27% 4.4 mph WNW7.1 kmh WNW 21.0 mph33.8 kmh 30.10 in1019.3 mb 0.00 in0.0 mm 0.00 in0.0 mm 0.00 in0.0 mm
05:20 PM 53.4°F11.9°C 19.2°F-7.1°C 26% 9.5 mph NW15.3 kmh NW 21.0 mph33.8 kmh 30.10 in1019.3 mb 0.00 in0.0 mm 0.00 in0.0 mm 0.00 in0.0 mm
05:25 PM 53.3°F11.8°C 19.1°F-7.2°C 26% 8.0 mph NW12.9 kmh NW 18.0 mph29.0 kmh 30.10 in1019.3 mb 0.00 in0.0 mm 0.00 in0.0 mm 0.00 in0.0 mm
05:30 PM 53.4°F11.9°C 20.9°F-6.2°C 28% 3.7 mph NW6.0 kmh NW 18.0 mph29.0 kmh 30.10 in1019.3 mb 0.00 in0.0 mm 0.00 in0.0 mm 0.00 in0.0 mm
05:35 PM 53.3°F11.8°C 20.0°F-6.7°C 27% 5.2 mph NW8.4 kmh NW 18.0 mph29.0 kmh 30.10 in1019.3 mb 0.00 in0.0 mm 0.00 in0.0 mm 0.00 in0.0 mm
05:40 PM 53.4°F11.9°C 20.9°F-6.2°C 28% 4.5 mph WNW7.2 kmh WNW 13.0 mph20.9 kmh 30.11 in1019.6 mb 0.00 in0.0 mm 0.00 in0.0 mm 0.00 in0.0 mm
05:45 PM 53.5°F11.9°C 21.8°F-5.7°C 29% 5.9 mph W9.5 kmh W 18.0 mph29.0 kmh 30.11 in1019.6 mb 0.00 in0.0 mm 0.00 in0.0 mm 0.00 in0.0 mm
05:50 PM 53.2°F11.8°C 21.5°F-5.8°C 29% 7.7 mph WNW12.4 kmh WNW 18.0 mph29.0 kmh 30.11 in1019.6 mb 0.00 in0.0 mm 0.00 in0.0 mm 0.00 in0.0 mm
05:55 PM 53.1°F11.7°C 21.4°F-5.9°C 29% 4.7 mph NW7.6 kmh NW 18.0 mph29.0 kmh 30.11 in1019.6 mb 0.00 in0.0 mm 0.00 in0.0 mm 0.00 in0.0 mm
06:00 PM 53.0°F11.7°C 22.4°F-5.3°C 30% 3.0 mph NW4.8 kmh NW 18.0 mph29.0 kmh 30.11 in1019.6 mb 0.00 in0.0 mm 0.00 in0.0 mm 0.00 in0.0 mm
06:05 PM 52.7°F11.5°C 20.5°F-6.4°C 28% 8.1 mph WNW13.0 kmh WNW 18.0 mph29.0 kmh 30.11 in1019.6 mb 0.00 in0.0 mm 0.00 in0.0 mm 0.00 in0.0 mm
06:10 PM 52.3°F11.3°C 19.9°F-6.7°C 28% 3.1 mph WNW5.0 kmh WNW 18.0 mph29.0 kmh 30.11 in1019.6 mb 0.00 in0.0 mm 0.00 in0.0 mm 0.00 in0.0 mm
06:15 PM 52.2°F11.2°C 19.9°F-6.7°C 28% 6.2 mph NW10.0 kmh NW 18.0 mph29.0 kmh 30.11 in1019.6 mb 0.00 in0.0 mm 0.00 in0.0 mm 0.00 in0.0 mm
06:20 PM 52.0°F11.1°C 20.5°F-6.4°C 29% 3.5 mph NW5.6 kmh NW 16.0 mph25.7 kmh 30.11 in1019.6 mb 0.00 in0.0 mm 0.00 in0.0 mm 0.00 in0.0 mm
06:25 PM 51.8°F11.0°C 20.3°F-6.5°C 29% 4.1 mph WNW6.6 kmh WNW 16.0 mph25.7 kmh 30.11 in1019.6 mb 0.00 in0.0 mm 0.00 in0.0 mm 0.00 in0.0 mm
06:30 PM 51.6°F10.9°C 20.9°F-6.2°C 30% 6.1 mph WNW9.8 kmh WNW 16.0 mph25.7 kmh 30.12 in1020.0 mb 0.00 in0.0 mm 0.00 in0.0 mm 0.00 in0.0 mm
06:35 PM 51.3°F10.7°C 21.4°F-5.9°C 31% 3.0 mph NW4.8 kmh NW 13.0 mph20.9 kmh 30.12 in1020.0 mb 0.00 in0.0 mm 0.00 in0.0 mm 0.00 in0.0 mm
06:40 PM 51.0°F10.6°C 21.9°F-5.6°C 32% 5.4 mph WNW8.7 kmh WNW 13.0 mph20.9 kmh 30.12 in1020.0 mb 0.00 in0.0 mm 0.00 in0.0 mm 0.00 in0.0 mm
06:45 PM 50.7°F10.4°C 21.7°F-5.7°C 32% 3.1 mph WNW5.0 kmh WNW 13.0 mph20.9 kmh 30.12 in1020.0 mb 0.00 in0.0 mm 0.00 in0.0 mm 0.00 in0.0 mm
06:50 PM 50.3°F10.2°C 22.3°F-5.4°C 33% 2.8 mph WNW4.5 kmh WNW 10.0 mph16.1 kmh 30.12 in1020.0 mb 0.00 in0.0 mm 0.00 in0.0 mm 0.00 in0.0 mm
06:55 PM 50.2°F10.1°C 22.0°F-5.6°C 33% 4.8 mph WNW7.7 kmh WNW 16.0 mph25.7 kmh 30.12 in1020.0 mb 0.00 in0.0 mm 0.00 in0.0 mm 0.00 in0.0 mm
07:00 PM 50.0°F10.0°C 22.0°F-5.6°C 33% 4.3 mph NW6.9 kmh NW 16.0 mph25.7 kmh 30.12 in1020.0 mb 0.00 in0.0 mm 0.00 in0.0 mm 0.00 in0.0 mm
07:05 PM 49.8°F9.9°C 21.6°F-5.8°C 33% 3.8 mph NW6.1 kmh NW 16.0 mph25.7 kmh 30.12 in1020.0 mb 0.00 in0.0 mm 0.00 in0.0 mm 0.00 in0.0 mm
07:10 PM 49.7°F9.8°C 21.7°F-5.7°C 33% 7.7 mph WNW12.4 kmh WNW 14.0 mph22.5 kmh 30.12 in1020.0 mb 0.00 in0.0 mm 0.00 in0.0 mm 0.00 in0.0 mm
07:14 PM 49.5°F9.7°C 22.0°F-5.6°C 34% 4.4 mph WNW7.1 kmh WNW 16.0 mph25.7 kmh 30.12 in1020.0 mb 0.00 in0.0 mm 0.00 in0.0 mm 0.00 in0.0 mm
07:19 PM 49.3°F9.6°C 21.9°F-5.6°C 34% 4.2 mph WNW6.8 kmh WNW 16.0 mph25.7 kmh 30.12 in1020.0 mb 0.00 in0.0 mm 0.00 in0.0 mm 0.00 in0.0 mm
07:24 PM 49.1°F9.5°C 22.4°F-5.3°C 35% 4.1 mph WNW6.6 kmh WNW 16.0 mph25.7 kmh 30.12 in1020.0 mb 0.00 in0.0 mm 0.00 in0.0 mm 0.00 in0.0 mm
07:29 PM 48.9°F9.4°C 21.5°F-5.8°C 34% 5.5 mph NW8.9 kmh NW 13.0 mph20.9 kmh 30.12 in1020.0 mb 0.00 in0.0 mm 0.00 in0.0 mm 0.00 in0.0 mm
07:34 PM 48.7°F9.3°C 21.5°F-5.8°C 34% 8.3 mph WNW13.4 kmh WNW 16.0 mph25.7 kmh 30.12 in1020.0 mb 0.00 in0.0 mm 0.00 in0.0 mm 0.00 in0.0 mm
07:39 PM 48.6°F9.2°C 21.5°F-5.8°C 34% 5.5 mph NW8.9 kmh NW 16.0 mph25.7 kmh 30.12 in1020.0 mb 0.00 in0.0 mm 0.00 in0.0 mm 0.00 in0.0 mm
07:44 PM 48.5°F9.2°C 21.2°F-6.0°C 34% 4.3 mph NW6.9 kmh NW 16.0 mph25.7 kmh 30.12 in1020.0 mb 0.00 in0.0 mm 0.00 in0.0 mm 0.00 in0.0 mm
07:49 PM 48.4°F9.1°C 21.1°F-6.1°C 34% 5.4 mph WNW8.7 kmh WNW 17.0 mph27.4 kmh 30.12 in1020.0 mb 0.00 in0.0 mm 0.00 in0.0 mm 0.00 in0.0 mm
07:54 PM 48.2°F9.0°C 20.9°F-6.2°C 34% 3.9 mph WNW6.3 kmh WNW 17.0 mph27.4 kmh 30.12 in1020.0 mb 0.00 in0.0 mm 0.00 in0.0 mm 0.00 in0.0 mm
07:59 PM 48.1°F8.9°C 20.8°F-6.2°C 34% 3.3 mph WNW5.3 kmh WNW 17.0 mph27.4 kmh 30.12 in1020.0 mb 0.00 in0.0 mm 0.00 in0.0 mm 0.00 in0.0 mm
08:04 PM 48.0°F8.9°C 20.7°F-6.3°C 34% 6.1 mph WNW9.8 kmh WNW 17.0 mph27.4 kmh 30.12 in1020.0 mb 0.00 in0.0 mm 0.00 in0.0 mm 0.00 in0.0 mm
08:09 PM 47.7°F8.7°C 20.4°F-6.4°C 34% 5.1 mph WNW8.2 kmh WNW 14.0 mph22.5 kmh 30.12 in1020.0 mb 0.00 in0.0 mm 0.00 in0.0 mm 0.00 in0.0 mm
08:14 PM 47.6°F8.7°C 20.4°F-6.4°C 34% 4.2 mph WNW6.8 kmh WNW 14.0 mph22.5 kmh 30.11 in1019.6 mb 0.00 in0.0 mm 0.00 in0.0 mm 0.00 in0.0 mm
08:19 PM 47.6°F8.7°C 20.6°F-6.3°C 34% 6.4 mph WNW10.3 kmh WNW 18.0 mph29.0 kmh 30.11 in1019.6 mb 0.00 in0.0 mm 0.00 in0.0 mm 0.00 in0.0 mm
08:24 PM 47.4°F8.6°C 20.9°F-6.2°C 35% 3.7 mph NW6.0 kmh NW 18.0 mph29.0 kmh 30.11 in1019.6 mb 0.00 in0.0 mm 0.00 in0.0 mm 0.00 in0.0 mm
08:29 PM 47.2°F8.4°C 20.7°F-6.3°C 35% 4.7 mph WNW7.6 kmh WNW 18.0 mph29.0 kmh 30.11 in1019.6 mb 0.00 in0.0 mm 0.00 in0.0 mm 0.00 in0.0 mm
08:34 PM 47.0°F8.3°C 20.5°F-6.4°C 35% 4.9 mph NW7.9 kmh NW 18.0 mph29.0 kmh 30.11 in1019.6 mb 0.00 in0.0 mm 0.00 in0.0 mm 0.00 in0.0 mm
08:39 PM 46.8°F8.2°C 21.0°F-6.1°C 36% 4.6 mph NW7.4 kmh NW 11.0 mph17.7 kmh 30.12 in1020.0 mb 0.00 in0.0 mm 0.00 in0.0 mm 0.00 in0.0 mm
08:44 PM 46.7°F8.2°C 20.9°F-6.2°C 36% 4.4 mph WNW7.1 kmh WNW 12.0 mph19.3 kmh 30.12 in1020.0 mb 0.00 in0.0 mm 0.00 in0.0 mm 0.00 in0.0 mm
08:49 PM 46.5°F8.1°C 21.4°F-5.9°C 37% 4.1 mph WNW6.6 kmh WNW 12.0 mph19.3 kmh 30.11 in1019.6 mb 0.00 in0.0 mm 0.00 in0.0 mm 0.00 in0.0 mm
08:54 PM 46.4°F8.0°C 21.3°F-5.9°C 37% 5.3 mph WNW8.5 kmh WNW 13.0 mph20.9 kmh 30.11 in1019.6 mb 0.00 in0.0 mm 0.00 in0.0 mm 0.00 in0.0 mm
08:59 PM 46.3°F7.9°C 21.9°F-5.6°C 38% 5.4 mph NW8.7 kmh NW 15.0 mph24.1 kmh 30.11 in1019.6 mb 0.00 in0.0 mm 0.00 in0.0 mm 0.00 in0.0 mm
09:04 PM 46.2°F7.9°C 21.8°F-5.7°C 38% 5.1 mph WNW8.2 kmh WNW 15.0 mph24.1 kmh 30.11 in1019.6 mb 0.00 in0.0 mm 0.00 in0.0 mm 0.00 in0.0 mm
09:09 PM 46.0°F7.8°C 22.2°F-5.4°C 39% 4.3 mph WNW6.9 kmh WNW 15.0 mph24.1 kmh 30.11 in1019.6 mb 0.00 in0.0 mm 0.00 in0.0 mm 0.00 in0.0 mm
09:14 PM 45.9°F7.7°C 22.1°F-5.5°C 39% 4.1 mph WNW6.6 kmh WNW 15.0 mph24.1 kmh 30.12 in1020.0 mb 0.00 in0.0 mm 0.00 in0.0 mm 0.00 in0.0 mm
09:19 PM 45.6°F7.6°C 22.5°F-5.3°C 40% 4.7 mph WNW7.6 kmh WNW 11.0 mph17.7 kmh 30.11 in1019.6 mb 0.00 in0.0 mm 0.00 in0.0 mm 0.00 in0.0 mm
09:24 PM 45.5°F7.5°C 23.0°F-5.0°C 41% 5.1 mph WNW8.2 kmh WNW 12.0 mph19.3 kmh 30.12 in1020.0 mb 0.00 in0.0 mm 0.00 in0.0 mm 0.00 in0.0 mm
09:29 PM 45.4°F7.4°C 22.9°F-5.1°C 41% 5.1 mph WNW8.2 kmh WNW 12.0 mph19.3 kmh 30.11 in1019.6 mb 0.00 in0.0 mm 0.00 in0.0 mm 0.00 in0.0 mm
09:34 PM 45.2°F7.3°C 22.7°F-5.2°C 41% 5.2 mph WNW8.4 kmh WNW 13.0 mph20.9 kmh 30.12 in1020.0 mb 0.00 in0.0 mm 0.00 in0.0 mm 0.00 in0.0 mm
09:39 PM 45.1°F7.3°C 23.2°F-4.9°C 42% 3.9 mph WNW6.3 kmh WNW 13.0 mph20.9 kmh 30.12 in1020.0 mb 0.00 in0.0 mm 0.00 in0.0 mm 0.00 in0.0 mm
09:44 PM 45.0°F7.2°C 23.1°F-4.9°C 42% 5.8 mph WNW9.3 kmh WNW 13.0 mph20.9 kmh 30.12 in1020.0 mb 0.00 in0.0 mm 0.00 in0.0 mm 0.00 in0.0 mm
09:49 PM 44.8°F7.1°C 23.5°F-4.7°C 43% 3.9 mph WNW6.3 kmh WNW 13.0 mph20.9 kmh 30.12 in1020.0 mb 0.00 in0.0 mm 0.00 in0.0 mm 0.00 in0.0 mm
09:54 PM 44.8°F7.1°C 23.5°F-4.7°C 43% 5.7 mph WNW9.2 kmh WNW 13.0 mph20.9 kmh 30.12 in1020.0 mb 0.00 in0.0 mm 0.00 in0.0 mm 0.00 in0.0 mm
09:59 PM 44.7°F7.1°C 23.4°F-4.8°C 43% 3.8 mph WNW6.1 kmh WNW 13.0 mph20.9 kmh 30.12 in1020.0 mb 0.00 in0.0 mm 0.00 in0.0 mm 0.00 in0.0 mm
10:04 PM 44.5°F6.9°C 23.2°F-4.9°C 43% 7.4 mph WNW11.9 kmh WNW 13.0 mph20.9 kmh 30.12 in1020.0 mb 0.00 in0.0 mm 0.00 in0.0 mm 0.00 in0.0 mm
10:09 PM 44.5°F6.9°C 23.8°F-4.6°C 44% 5.5 mph NW8.9 kmh NW 13.0 mph20.9 kmh 30.12 in1020.0 mb 0.00 in0.0 mm 0.00 in0.0 mm 0.00 in0.0 mm
10:14 PM 44.3°F6.8°C 23.7°F-4.6°C 44% 4.4 mph NW7.1 kmh NW 13.0 mph20.9 kmh 30.12 in1020.0 mb 0.00 in0.0 mm 0.00 in0.0 mm 0.00 in0.0 mm
10:19 PM 44.3°F6.8°C 23.6°F-4.7°C 44% 4.7 mph WNW7.6 kmh WNW 12.0 mph19.3 kmh 30.12 in1020.0 mb 0.00 in0.0 mm 0.00 in0.0 mm 0.00 in0.0 mm
10:24 PM 44.4°F6.9°C 23.3°F-4.8°C 43% 5.9 mph WNW9.5 kmh WNW 17.0 mph27.4 kmh 30.12 in1020.0 mb 0.00 in0.0 mm 0.00 in0.0 mm 0.00 in0.0 mm
10:29 PM 44.4°F6.9°C 23.3°F-4.8°C 43% 7.0 mph WNW11.3 kmh WNW 17.0 mph27.4 kmh 30.12 in1020.0 mb 0.00 in0.0 mm 0.00 in0.0 mm 0.00 in0.0 mm
10:34 PM 44.3°F6.8°C 23.0°F-5.0°C 43% 7.1 mph WNW11.4 kmh WNW 17.0 mph27.4 kmh 30.12 in1020.0 mb 0.00 in0.0 mm 0.00 in0.0 mm 0.00 in0.0 mm
10:39 PM 44.3°F6.8°C 23.0°F-5.0°C 43% 6.2 mph NW10.0 kmh NW 17.0 mph27.4 kmh 30.12 in1020.0 mb 0.00 in0.0 mm 0.00 in0.0 mm 0.00 in0.0 mm
10:44 PM 44.1°F6.7°C 23.0°F-5.0°C 43% 4.4 mph WNW7.1 kmh WNW 15.0 mph24.1 kmh 30.12 in1020.0 mb 0.00 in0.0 mm 0.00 in0.0 mm 0.00 in0.0 mm
10:49 PM 44.0°F6.7°C 22.8°F-5.1°C 43% 4.2 mph WNW6.8 kmh WNW 16.0 mph25.7 kmh 30.12 in1020.0 mb 0.00 in0.0 mm 0.00 in0.0 mm 0.00 in0.0 mm
10:54 PM 43.9°F6.6°C 22.7°F-5.2°C 43% 6.6 mph WNW10.6 kmh WNW 16.0 mph25.7 kmh 30.12 in1020.0 mb 0.00 in0.0 mm 0.00 in0.0 mm 0.00 in0.0 mm
10:59 PM 43.9°F6.6°C 22.8°F-5.1°C 43% 4.3 mph WNW6.9 kmh WNW 16.0 mph25.7 kmh 30.12 in1020.0 mb 0.00 in0.0 mm 0.00 in0.0 mm 0.00 in0.0 mm
11:04 PM 43.7°F6.5°C 22.5°F-5.3°C 43% 4.8 mph WNW7.7 kmh WNW 16.0 mph25.7 kmh 30.12 in1020.0 mb 0.00 in0.0 mm 0.00 in0.0 mm 0.00 in0.0 mm
11:09 PM 43.6°F6.4°C 23.0°F-5.0°C 44% 6.0 mph WNW9.7 kmh WNW 15.0 mph24.1 kmh 30.12 in1020.0 mb 0.00 in0.0 mm 0.00 in0.0 mm 0.00 in0.0 mm
11:14 PM 43.5°F6.4°C 23.0°F-5.0°C 44% 4.3 mph WNW6.9 kmh WNW 15.0 mph24.1 kmh 30.13 in1020.3 mb 0.00 in0.0 mm 0.00 in0.0 mm 0.00 in0.0 mm
11:19 PM 43.4°F6.3°C 22.8°F-5.1°C 44% 6.3 mph WNW10.1 kmh WNW 16.0 mph25.7 kmh 30.12 in1020.0 mb 0.00 in0.0 mm 0.00 in0.0 mm 0.00 in0.0 mm
11:24 PM 43.3°F6.3°C 22.7°F-5.2°C 44% 5.8 mph WNW9.3 kmh WNW 16.0 mph25.7 kmh 30.12 in1020.0 mb 0.00 in0.0 mm 0.00 in0.0 mm 0.00 in0.0 mm
11:29 PM 43.3°F6.3°C 22.7°F-5.2°C 44% 7.3 mph WNW11.7 kmh WNW 16.0 mph25.7 kmh 30.13 in1020.3 mb 0.00 in0.0 mm 0.00 in0.0 mm 0.00 in0.0 mm
11:34 PM 43.2°F6.2°C 22.6°F-5.2°C 44% 4.4 mph NW7.1 kmh NW 16.0 mph25.7 kmh 30.13 in1020.3 mb 0.00 in0.0 mm 0.00 in0.0 mm 0.00 in0.0 mm
11:39 PM 43.1°F6.2°C 22.5°F-5.3°C 44% 3.2 mph NW5.1 kmh NW 13.0 mph20.9 kmh 30.13 in1020.3 mb 0.00 in0.0 mm 0.00 in0.0 mm 0.00 in0.0 mm
11:44 PM 42.9°F6.1°C 22.5°F-5.3°C 44% 5.2 mph NW8.4 kmh NW 13.0 mph20.9 kmh 30.13 in1020.3 mb 0.00 in0.0 mm 0.00 in0.0 mm 0.00 in0.0 mm
11:49 PM 42.8°F6.0°C 22.2°F-5.4°C 44% 4.1 mph NW6.6 kmh NW 13.0 mph20.9 kmh 30.13 in1020.3 mb 0.00 in0.0 mm 0.00 in0.0 mm 0.00 in0.0 mm
11:54 PM 42.6°F5.9°C 22.6°F-5.2°C 45% 5.6 mph WNW9.0 kmh WNW 13.0 mph20.9 kmh 30.12 in1020.0 mb 0.00 in0.0 mm 0.00 in0.0 mm 0.00 in0.0 mm
11:59 PM 42.5°F5.8°C 22.5°F-5.3°C 45% 7.3 mph WNW11.7 kmh WNW 15.0 mph24.1 kmh 30.12 in1020.0 mb 0.00 in0.0 mm 0.00 in0.0 mm 0.00 in0.0 mm